Time;durP1;ratioP1;P1;durP2;ratioP2;P2;SDS_P1;SDS_P2;PMS_P1;PMS_P2;Temp;Humidity;BMP_temperature;BMP_pressure;BME280_temperature;BME280_humidity;BME280_pressure;Samples;Min_cycle;Max_cycle;Signal;HPM_P1;HPM_P2
2021/07/05 00:00:10;;;;;;;5.82;4.30;;;16.70;99.90;;;;;;5072542;28;20560;-87
2021/07/05 00:02:36;;;;;;;7.00;4.32;;;16.80;99.90;;;;;;5053115;28;20025;-89
2021/07/05 00:05:03;;;;;;;5.95;3.85;;;16.80;99.90;;;;;;5052413;28;20568;-89
2021/07/05 00:07:28;;;;;;;5.80;3.90;;;16.80;99.90;;;;;;5052039;28;20052;-87
2021/07/05 00:09:54;;;;;;;5.30;3.97;;;16.90;99.90;;;;;;5068126;28;20051;-89
2021/07/05 00:12:19;;;;;;;8.15;4.43;;;16.80;99.90;;;;;;5050327;28;20115;-89
2021/07/05 00:14:45;;;;;;;9.68;3.85;;;16.80;99.90;;;;;;5050476;28;20033;-89
2021/07/05 00:17:11;;;;;;;5.75;3.85;;;16.70;99.90;;;;;;5040353;28;20123;-88
2021/07/05 00:19:36;;;;;;;5.28;3.60;;;16.70;99.90;;;;;;5054257;28;20041;-88
2021/07/05 00:22:02;;;;;;;6.05;3.88;;;16.70;99.90;;;;;;5054896;28;20397;-89
2021/07/05 00:24:28;;;;;;;7.32;3.50;;;16.60;99.90;;;;;;5036945;28;20032;-88
2021/07/05 00:26:53;;;;;;;4.93;3.42;;;16.60;99.90;;;;;;5037250;28;20439;-88
2021/07/05 00:29:19;;;;;;;6.32;3.22;;;16.60;99.90;;;;;;5036226;28;20029;-87
2021/07/05 00:31:45;;;;;;;5.57;3.50;;;16.60;99.90;;;;;;5054720;28;20029;-89
2021/07/05 00:34:10;;;;;;;6.25;3.20;;;16.60;99.90;;;;;;5036968;28;20021;-89
2021/07/05 00:36:36;;;;;;;4.47;2.78;;;16.60;99.90;;;;;;5036846;28;20021;-89
2021/07/05 00:39:03;;;;;;;6.13;3.22;;;16.50;99.90;;;;;;5036029;28;20056;-89
2021/07/05 00:41:29;;;;;;;5.70;2.97;;;16.60;99.90;;;;;;5036696;28;20028;-89
2021/07/05 00:43:57;;;;;;;6.25;3.33;;;16.50;99.90;;;;;;5036474;28;20078;-88
2021/07/05 00:46:23;;;;;;;4.45;3.30;;;16.50;99.90;;;;;;5054487;28;20535;-88
2021/07/05 00:48:49;;;;;;;9.18;3.20;;;16.50;99.90;;;;;;5036245;28;20025;-89
2021/07/05 00:51:16;;;;;;;7.70;3.00;;;16.50;99.90;;;;;;5036293;28;20374;-88
2021/07/05 00:53:43;;;;;;;6.30;3.58;;;16.50;99.90;;;;;;5036673;28;20104;-89
2021/07/05 00:56:09;;;;;;;4.25;3.35;;;16.50;99.90;;;;;;5036605;28;20033;-89
2021/07/05 00:58:35;;;;;;;7.47;3.22;;;16.40;99.90;;;;;;5036525;28;20102;-88
2021/07/05 01:01:00;;;;;;;4.10;2.80;;;16.40;99.90;;;;;;5035947;28;20032;-88
2021/07/05 01:03:26;;;;;;;4.05;2.67;;;16.40;99.90;;;;;;5036490;28;20021;-88
2021/07/05 01:05:52;;;;;;;3.20;2.30;;;16.50;99.90;;;;;;5037132;28;20040;-87
2021/07/05 01:08:17;;;;;;;5.82;2.85;;;16.50;99.90;;;;;;5048462;28;20025;-88
2021/07/05 01:10:43;;;;;;;3.35;2.15;;;16.40;99.90;;;;;;5054918;28;20021;-88
2021/07/05 01:13:09;;;;;;;3.78;2.50;;;16.50;99.90;;;;;;5057501;28;20025;-87
2021/07/05 01:15:34;;;;;;;2.72;2.30;;;16.50;99.90;;;;;;5072315;28;20033;-87
2021/07/05 01:18:04;;;;;;;6.20;2.45;;;16.50;99.90;;;;;;5048380;28;20017;-87
2021/07/05 01:20:32;;;;;;;5.82;2.50;;;16.50;99.90;;;;;;5053508;28;20037;-88
2021/07/05 01:22:58;;;;;;;3.85;2.22;;;16.50;99.90;;;;;;5036187;28;20056;-88
2021/07/05 01:25:27;;;;;;;4.10;2.50;;;16.50;99.90;;;;;;5036365;28;20032;-88
2021/07/05 01:27:53;;;;;;;4.03;2.08;;;16.50;99.90;;;;;;5035128;28;20087;-88
2021/07/05 01:30:20;;;;;;;4.50;2.47;;;16.50;99.90;;;;;;5035940;28;20449;-89
2021/07/05 01:32:48;;;;;;;5.15;2.20;;;16.50;99.90;;;;;;5036386;28;20117;-89
2021/07/05 01:35:15;;;;;;;6.45;2.42;;;16.50;99.90;;;;;;5037020;28;20033;-89
2021/07/05 01:37:41;;;;;;;4.88;2.38;;;16.50;99.90;;;;;;5046418;28;20059;-87
2021/07/05 01:40:14;;;;;;;3.33;2.03;;;16.50;99.90;;;;;;5052669;28;20025;-87
2021/07/05 01:42:40;;;;;;;4.30;2.40;;;16.50;99.90;;;;;;5053948;28;20036;-88
2021/07/05 01:45:06;;;;;;;5.82;2.30;;;16.50;99.90;;;;;;5053375;28;20053;-87
2021/07/05 01:47:32;;;;;;;3.00;2.20;;;16.50;99.90;;;;;;5053826;28;20033;-88
2021/07/05 01:49:57;;;;;;;4.18;2.28;;;16.50;99.90;;;;;;5053741;28;20013;-87
2021/07/05 01:52:23;;;;;;;3.58;2.05;;;16.50;99.90;;;;;;5042061;28;20024;-86
2021/07/05 01:54:48;;;;;;;4.57;2.28;;;16.50;99.90;;;;;;5035176;28;20037;-87
2021/07/05 01:57:26;;;;;;;3.85;2.13;;;16.50;99.90;;;;;;5053003;28;20033;-87
2021/07/05 01:59:57;;;;;;;3.13;2.00;;;16.50;99.90;;;;;;5034182;28;20470;-88
2021/07/05 02:02:24;;;;;;;5.53;2.20;;;16.50;99.90;;;;;;5034833;28;20029;-87
2021/07/05 02:04:50;;;;;;;4.30;2.15;;;16.50;99.90;;;;;;5034311;28;20082;-87
2021/07/05 02:07:16;;;;;;;4.55;2.42;;;16.60;99.90;;;;;;5051520;28;20043;-87
2021/07/05 02:09:43;;;;;;;2.42;1.85;;;16.60;99.90;;;;;;5051665;28;20525;-87
2021/07/05 02:12:10;;;;;;;4.15;2.20;;;16.60;99.90;;;;;;5034615;28;20477;-87
2021/07/05 02:14:36;;;;;;;4.97;2.10;;;16.60;99.90;;;;;;5053117;28;20060;-87
2021/07/05 02:17:02;;;;;;;4.78;2.33;;;16.60;99.90;;;;;;5035806;28;20029;-87
2021/07/05 02:19:28;;;;;;;5.35;2.35;;;16.60;99.90;;;;;;5034948;28;20119;-87
2021/07/05 02:21:54;;;;;;;4.57;2.25;;;16.60;99.90;;;;;;5053133;28;20396;-87
2021/07/05 02:24:20;;;;;;;5.43;2.50;;;16.60;99.90;;;;;;5052269;28;20473;-87
2021/07/05 02:26:45;;;;;;;2.72;2.00;;;16.60;99.90;;;;;;5052343;28;20112;-87
2021/07/05 02:29:11;;;;;;;5.80;2.40;;;16.60;99.90;;;;;;5033719;28;20021;-87
2021/07/05 02:31:37;;;;;;;6.78;2.28;;;16.60;99.90;;;;;;5034344;28;20056;-88
2021/07/05 02:34:04;;;;;;;3.72;2.17;;;16.60;99.90;;;;;;5052147;28;20025;-87
2021/07/05 02:36:30;;;;;;;2.95;2.00;;;16.60;99.90;;;;;;5052587;28;20116;-88
2021/07/05 02:38:56;;;;;;;5.75;2.22;;;16.60;99.90;;;;;;5033342;28;20132;-87
2021/07/05 02:41:21;;;;;;;3.38;2.13;;;16.60;99.90;;;;;;5052025;28;20033;-87
2021/07/05 02:43:47;;;;;;;7.00;2.75;;;16.60;99.90;;;;;;5052085;28;20036;-87
2021/07/05 02:46:13;;;;;;;5.13;2.33;;;16.60;99.90;;;;;;5034015;28;20032;-87
2021/07/05 02:48:40;;;;;;;4.07;2.30;;;16.70;99.90;;;;;;5051988;28;20029;-87
2021/07/05 02:51:08;;;;;;;3.13;1.98;;;16.60;99.90;;;;;;5051245;28;20078;-87
2021/07/05 02:53:35;;;;;;;5.57;2.35;;;16.70;99.90;;;;;;5034131;28;20036;-87
2021/07/05 02:56:01;;;;;;;4.30;2.30;;;16.60;99.90;;;;;;5051854;28;20032;-88
2021/07/05 02:58:28;;;;;;;5.65;2.05;;;16.70;99.90;;;;;;5033983;28;20159;-87
2021/07/05 03:00:56;;;;;;;4.63;2.10;;;16.70;99.90;;;;;;5033533;28;20493;-87
2021/07/05 03:03:23;;;;;;;3.40;2.13;;;16.70;99.90;;;;;;5051809;28;20036;-87
2021/07/05 03:05:49;;;;;;;3.88;1.88;;;16.70;99.90;;;;;;5033854;28;20033;-87
2021/07/05 03:08:14;;;;;;;5.85;2.20;;;16.70;99.90;;;;;;5051665;28;20032;-87
2021/07/05 03:10:41;;;;;;;4.50;2.45;;;16.70;99.90;;;;;;5051061;28;20025;-87
2021/07/05 03:13:11;;;;;;;4.20;2.50;;;16.80;99.90;;;;;;5051748;28;20047;-87
2021/07/05 03:15:36;;;;;;;2.92;2.25;;;16.80;99.90;;;;;;5033892;28;20025;-88
2021/07/05 03:18:03;;;;;;;3.80;2.30;;;16.80;99.90;;;;;;5033804;28;20082;-88
2021/07/05 03:20:32;;;;;;;3.83;2.20;;;16.80;99.90;;;;;;5032912;28;20382;-87
2021/07/05 03:22:58;;;;;;;;;;;16.90;99.90;;;;;;5034127;28;20076;-87
2021/07/05 03:25:25;;;;;;;2.92;2.28;;;16.90;99.90;;;;;;5051558;28;19916;-87
2021/07/05 03:27:52;;;;;;;5.55;2.38;;;16.90;99.90;;;;;;5033678;28;20071;-87
2021/07/05 03:30:19;;;;;;;5.75;2.75;;;16.90;99.90;;;;;;5050918;28;20087;-87
2021/07/05 03:32:46;;;;;;;5.78;2.53;;;16.90;99.90;;;;;;5051414;28;20025;-87
2021/07/05 03:35:13;;;;;;;3.25;2.30;;;17.00;99.90;;;;;;5033607;28;20032;-87
2021/07/05 03:37:40;;;;;;;6.43;2.45;;;17.00;99.90;;;;;;5051486;28;20036;-87
2021/07/05 03:40:08;;;;;;;4.50;2.50;;;17.00;99.90;;;;;;5032972;28;20111;-87
2021/07/05 03:42:34;;;;;;;3.72;2.20;;;17.10;99.90;;;;;;5051406;28;20050;-88
2021/07/05 03:45:00;;;;;;;4.28;2.50;;;17.10;99.90;;;;;;5051333;28;20575;-88
2021/07/05 03:47:26;;;;;;;3.70;2.42;;;17.10;99.90;;;;;;5051426;28;20096;-87
2021/07/05 03:49:52;;;;;;;5.70;2.47;;;17.10;99.90;;;;;;5050865;28;20024;-87
2021/07/05 03:52:17;;;;;;;4.80;2.42;;;17.10;99.90;;;;;;5035665;28;20091;-87
2021/07/05 03:54:44;;;;;;;3.63;2.38;;;17.10;99.90;;;;;;5055294;28;20049;-88
2021/07/05 03:57:21;;;;;;;4.75;2.40;;;17.10;99.90;;;;;;5055065;28;20029;-88
2021/07/05 03:59:54;;;;;;;4.70;2.30;;;17.20;99.90;;;;;;5054511;28;20031;-87
2021/07/05 04:02:21;;;;;;;2.80;2.10;;;17.20;99.90;;;;;;5055027;28;20029;-88
2021/07/05 04:04:47;;;;;;;4.82;2.50;;;17.20;99.90;;;;;;5054765;28;20362;-88
2021/07/05 04:07:13;;;;;;;4.72;2.30;;;17.20;99.90;;;;;;5036850;28;20087;-88
2021/07/05 04:09:40;;;;;;;5.55;2.53;;;17.20;99.90;;;;;;5036324;28;20021;-88
2021/07/05 04:12:08;;;;;;;4.90;2.63;;;17.20;99.90;;;;;;5036821;28;20028;-87
2021/07/05 04:14:34;;;;;;;4.75;2.90;;;17.20;99.90;;;;;;5054651;28;20021;-88
2021/07/05 04:17:00;;;;;;;6.57;3.28;;;17.20;99.90;;;;;;5036761;28;20029;-88
2021/07/05 04:19:26;;;;;;;6.45;3.58;;;17.20;99.90;;;;;;5036181;28;20039;-87
2021/07/05 04:21:51;;;;;;;5.70;3.40;;;17.20;99.90;;;;;;5054582;28;20056;-88
2021/07/05 04:24:17;;;;;;;7.70;3.80;;;17.20;99.90;;;;;;5054525;28;20025;-87
2021/07/05 04:26:43;;;;;;;7.88;3.90;;;17.20;99.90;;;;;;5036635;28;20106;-87
2021/07/05 04:29:09;;;;;;;6.47;3.40;;;17.20;99.90;;;;;;5035807;28;20021;-87
2021/07/05 04:31:34;;;;;;;5.40;2.97;;;17.10;99.90;;;;;;5036437;28;20017;-87
2021/07/05 04:34:00;;;;;;;9.18;3.63;;;17.00;99.90;;;;;;5036611;28;20075;-87
2021/07/05 04:36:25;;;;;;;10.20;3.92;;;17.00;99.90;;;;;;5054287;28;20033;-87
2021/07/05 04:38:51;;;;;;;20.30;6.13;;;16.90;99.90;;;;;;5036025;28;20021;-87
2021/07/05 04:41:17;;;;;;;27.48;6.43;;;16.80;99.90;;;;;;5053932;28;20107;-87
2021/07/05 04:43:42;;;;;;;15.85;4.20;;;16.70;99.90;;;;;;5054129;28;20111;-87
2021/07/05 04:46:08;;;;;;;4.28;1.30;;;16.60;99.90;;;;;;5054184;28;20032;-87
2021/07/05 04:48:34;;;;;;;3.50;1.00;;;16.50;99.90;;;;;;5036211;28;20492;-87
2021/07/05 04:51:02;;;;;;;3.95;1.27;;;16.40;99.90;;;;;;5035550;28;20025;-87
2021/07/05 04:53:28;;;;;;;3.28;0.90;;;16.30;99.90;;;;;;5036286;28;20021;-87
2021/07/05 04:55:54;;;;;;;3.20;0.90;;;16.30;99.90;;;;;;5036184;28;20029;-86
2021/07/05 04:58:21;;;;;;;2.10;0.90;;;16.20;99.90;;;;;;5053886;28;20481;-87
2021/07/05 05:00:47;;;;;;;2.50;0.80;;;16.20;99.90;;;;;;5035359;28;20038;-86
2021/07/05 05:03:13;;;;;;;1.70;1.05;;;16.20;99.90;;;;;;5053585;28;20029;-86
2021/07/05 05:05:40;;;;;;;2.13;1.13;;;16.20;99.90;;;;;;5054053;28;20040;-87
2021/07/05 05:08:08;;;;;;;2.60;0.90;;;16.20;99.90;;;;;;5035867;28;20033;-87
2021/07/05 05:10:35;;;;;;;2.55;0.90;;;16.10;99.90;;;;;;5035222;28;20029;-87
2021/07/05 05:13:01;;;;;;;2.35;1.10;;;16.10;99.90;;;;;;5035608;28;20029;-87
2021/07/05 05:15:27;;;;;;;1.90;1.00;;;16.10;99.90;;;;;;5053709;28;20040;-87
2021/07/05 05:17:53;;;;;;;1.77;0.95;;;16.10;99.90;;;;;;5035736;28;20037;-87
2021/07/05 05:20:20;;;;;;;1.38;0.77;;;16.10;99.90;;;;;;5035924;28;20037;-88
2021/07/05 05:22:46;;;;;;;2.65;0.98;;;16.10;99.90;;;;;;5053681;28;20267;-89
2021/07/05 05:25:13;;;;;;;2.22;1.00;;;16.10;99.90;;;;;;5053385;28;20037;-86
2021/07/05 05:27:39;;;;;;;2.53;1.10;;;16.10;99.90;;;;;;5053506;28;20112;-88
2021/07/05 05:30:07;;;;;;;1.83;0.90;;;16.10;99.90;;;;;;5052952;28;20465;-88
2021/07/05 05:32:32;;;;;;;2.78;0.88;;;16.10;99.90;;;;;;5035649;28;20043;-88
2021/07/05 05:34:58;;;;;;;5.40;1.15;;;16.10;99.90;;;;;;5053456;28;20389;-88
2021/07/05 05:37:24;;;;;;;2.42;1.20;;;16.10;99.90;;;;;;5053361;28;20028;-89
2021/07/05 05:39:49;;;;;;;2.42;1.30;;;16.10;99.90;;;;;;5034949;28;20036;-88
2021/07/05 05:42:15;;;;;;;3.25;1.27;;;16.20;99.90;;;;;;5053250;28;20374;-89
2021/07/05 05:44:44;;;;;;;3.83;1.45;;;16.20;99.90;;;;;;5053141;28;20063;-88
2021/07/05 05:47:10;;;;;;;;;;;16.20;99.90;;;;;;5035848;28;20485;-88
2021/07/05 05:49:35;;;;;;;3.30;1.23;;;16.20;99.90;;;;;;5051107;28;19926;-88
2021/07/05 05:52:01;;;;;;;2.75;1.23;;;16.20;99.90;;;;;;5035213;28;20021;-88
2021/07/05 05:54:26;;;;;;;2.63;1.48;;;16.20;99.90;;;;;;5035251;28;20052;-88
2021/07/05 05:56:53;;;;;;;2.95;1.50;;;16.20;99.90;;;;;;5053105;28;20386;-88
2021/07/05 05:59:19;;;;;;;3.28;1.42;;;16.20;99.90;;;;;;5034501;28;20028;-86
2021/07/05 06:01:49;;;;;;;2.80;1.45;;;16.20;99.90;;;;;;5034949;28;20032;-88
2021/07/05 06:04:16;;;;;;;4.28;1.45;;;16.20;99.90;;;;;;5035161;28;20025;-88
2021/07/05 06:06:41;;;;;;;2.45;1.48;;;16.20;99.90;;;;;;5034972;28;20024;-88
2021/07/05 06:09:07;;;;;;;2.92;1.70;;;16.20;99.90;;;;;;5052138;28;20028;-89
2021/07/05 06:11:35;;;;;;;4.40;1.75;;;16.20;99.90;;;;;;5034786;28;20028;-88
2021/07/05 06:14:00;;;;;;;3.72;1.60;;;16.20;99.90;;;;;;5052314;28;20021;-89
2021/07/05 06:16:26;;;;;;;4.25;2.10;;;16.20;99.90;;;;;;5052650;28;20105;-89
2021/07/05 06:18:52;;;;;;;4.32;1.67;;;16.20;99.90;;;;;;5052043;28;20029;-88
2021/07/05 06:21:19;;;;;;;3.63;2.15;;;16.20;99.90;;;;;;5034494;28;20516;-88
2021/07/05 06:23:45;;;;;;;6.28;2.28;;;16.30;99.90;;;;;;5034547;28;20401;-88
2021/07/05 06:26:11;;;;;;;4.43;2.30;;;16.30;99.90;;;;;;5034666;28;20025;-89
2021/07/05 06:28:36;;;;;;;3.63;2.10;;;16.30;99.90;;;;;;5034547;28;20497;-88
2021/07/05 06:31:03;;;;;;;4.93;2.63;;;16.30;99.90;;;;;;5033728;28;20051;-88
2021/07/05 06:33:29;;;;;;;5.07;2.88;;;16.30;99.90;;;;;;5034398;28;20021;-89
2021/07/05 06:35:55;;;;;;;5.90;3.35;;;16.30;99.90;;;;;;5052404;28;20032;-88
2021/07/05 06:38:21;;;;;;;7.88;3.70;;;16.30;99.90;;;;;;5034414;28;20021;-88
2021/07/05 06:40:48;;;;;;;5.47;3.35;;;16.30;99.90;;;;;;5033806;28;20032;-88
2021/07/05 06:43:14;;;;;;;5.88;3.15;;;16.40;99.90;;;;;;5052193;28;20519;-89
2021/07/05 06:45:41;;;;;;;8.32;3.80;;;16.40;99.90;;;;;;5034291;28;20420;-88
2021/07/05 06:48:08;;;;;;;6.13;3.85;;;16.40;99.90;;;;;;5034263;28;20025;-89
2021/07/05 06:50:34;;;;;;;8.05;3.75;;;16.40;99.90;;;;;;5051955;28;20099;-90
2021/07/05 06:52:59;;;;;;;11.00;4.50;;;16.50;99.90;;;;;;5052000;28;20021;-90
2021/07/05 06:55:25;;;;;;;8.02;3.70;;;16.50;99.90;;;;;;5034514;28;20512;-90
2021/07/05 06:57:51;;;;;;;5.13;2.92;;;16.60;99.90;;;;;;5052327;28;20029;-89
2021/07/05 07:00:21;;;;;;;5.53;2.55;;;16.60;99.90;;;;;;5051323;28;20029;-90
2021/07/05 07:02:47;;;;;;;5.22;2.67;;;16.60;99.90;;;;;;5034085;28;20397;-89
2021/07/05 07:05:14;;;;;;;5.70;2.60;;;16.60;99.90;;;;;;5034161;28;20025;-89
2021/07/05 07:07:42;;;;;;;7.28;3.15;;;16.70;99.90;;;;;;5033957;28;20120;-88
2021/07/05 07:10:09;;;;;;;7.43;2.55;;;16.70;99.90;;;;;;5051132;28;20098;-90
2021/07/05 07:12:36;;;;;;;6.68;2.65;;;16.80;99.90;;;;;;5033919;28;20025;-89
2021/07/05 07:15:07;;;;;;;4.15;2.50;;;16.80;99.90;;;;;;5034074;28;20025;-90
2021/07/05 07:17:40;;;;;;;5.65;2.90;;;16.80;99.90;;;;;;5034131;28;20095;-89
2021/07/05 07:20:08;;;;;;;4.18;2.28;;;16.90;99.90;;;;;;5051402;28;20051;-87
2021/07/05 07:22:37;;;;;;;5.60;2.30;;;16.90;99.90;;;;;;5034700;28;20086;-87
2021/07/05 07:25:09;;;;;;;4.20;2.05;;;16.90;99.90;;;;;;5034604;28;20075;-87
2021/07/05 07:27:35;;;;;;;8.80;3.15;;;16.90;99.90;;;;;;5056931;28;20570;-86
2021/07/05 07:30:04;;;;;;;5.35;2.70;;;16.90;99.90;;;;;;5038109;28;20053;-87
2021/07/05 07:32:30;;;;;;;5.07;2.45;;;16.90;99.90;;;;;;5038088;28;20019;-87
2021/07/05 07:34:55;;;;;;;5.63;2.95;;;17.00;99.90;;;;;;5038592;28;20039;-87
2021/07/05 07:37:21;;;;;;;5.55;2.65;;;17.00;99.90;;;;;;5039110;28;20036;-86
2021/07/05 07:39:54;;;;;;;5.50;2.20;;;17.10;99.90;;;;;;5037904;28;20029;-85
2021/07/05 07:42:20;;;;;;;6.45;2.75;;;17.10;99.90;;;;;;5057211;28;20079;-87
2021/07/05 07:44:45;;;;;;;4.72;2.55;;;17.10;99.90;;;;;;5038480;28;20028;-87
2021/07/05 07:47:11;;;;;;;5.10;2.70;;;17.10;99.90;;;;;;5056105;28;20559;-86
2021/07/05 07:49:37;;;;;;;6.25;3.00;;;17.20;99.90;;;;;;5037541;28;20477;-87
2021/07/05 07:52:04;;;;;;;8.95;2.78;;;17.20;99.90;;;;;;5038139;28;20028;-87
2021/07/05 07:54:29;;;;;;;6.75;2.65;;;17.20;99.90;;;;;;5038056;28;20515;-87
2021/07/05 07:56:55;;;;;;;6.18;2.90;;;17.30;99.90;;;;;;5038467;28;20119;-87
2021/07/05 07:59:21;;;;;;;5.68;2.30;;;17.30;99.90;;;;;;5055775;28;20025;-87
2021/07/05 08:01:47;;;;;;;7.00;3.20;;;17.40;99.90;;;;;;5037975;28;20116;-87
2021/07/05 08:04:13;;;;;;;7.97;3.60;;;17.50;99.90;;;;;;5037664;28;20028;-89
2021/07/05 08:06:40;;;;;;;11.50;3.95;;;17.50;99.90;;;;;;5037337;28;20687;-90
2021/07/05 08:09:07;;;;;;;5.38;3.10;;;17.60;99.90;;;;;;5054766;28;20155;-88
2021/07/05 08:11:33;;;;;;;5.82;3.20;;;17.60;99.90;;;;;;5037395;28;20393;-89
2021/07/05 08:14:01;;;;;;;6.80;3.42;;;17.60;99.90;;;;;;5037255;28;20124;-90
2021/07/05 08:16:27;;;;;;;9.38;3.67;;;17.70;99.90;;;;;;5037037;28;20551;-90
2021/07/05 08:18:53;;;;;;;6.03;2.97;;;17.70;99.90;;;;;;5036471;28;20543;-86
2021/07/05 08:21:19;;;;;;;7.28;2.90;;;17.70;99.90;;;;;;5037205;28;20025;-90
2021/07/05 08:23:45;;;;;;;5.90;3.10;;;17.70;99.90;;;;;;5037198;28;20068;-89
2021/07/05 08:26:12;;;;;;;5.68;2.50;;;17.80;99.90;;;;;;5037318;28;20025;-90
2021/07/05 08:28:38;;;;;;;5.50;3.00;;;17.80;99.90;;;;;;5054766;28;20025;-90
2021/07/05 08:31:05;;;;;;;7.82;2.97;;;17.80;99.90;;;;;;5056378;28;20025;-89
2021/07/05 08:33:31;;;;;;;5.82;2.85;;;17.90;99.90;;;;;;5042098;28;20036;-89
2021/07/05 08:35:59;;;;;;;8.50;2.90;;;17.90;99.90;;;;;;5041172;28;20028;-89
2021/07/05 08:38:26;;;;;;;5.53;2.78;;;17.90;99.90;;;;;;5040954;28;20028;-89
2021/07/05 08:40:52;;;;;;;10.25;3.25;;;18.00;99.90;;;;;;5040419;28;20393;-90
2021/07/05 08:43:24;;;;;;;8.73;3.13;;;18.00;99.90;;;;;;5040916;28;20025;-90
2021/07/05 08:45:53;;;;;;;8.57;3.50;;;18.00;99.90;;;;;;5037874;28;20550;-89
2021/07/05 08:48:21;;;;;;;10.35;3.30;;;18.00;99.90;;;;;;5036650;28;20017;-90
2021/07/05 08:50:48;;;;;;;9.93;2.60;;;18.00;99.90;;;;;;5053664;28;20024;-90
2021/07/05 08:53:14;;;;;;;7.57;2.67;;;18.10;99.90;;;;;;5054404;28;20063;-89
2021/07/05 08:55:40;;;;;;;7.57;3.90;;;18.10;99.90;;;;;;5036483;28;20493;-90
2021/07/05 08:58:07;;;;;;;6.53;2.97;;;18.20;99.90;;;;;;5036547;28;20056;-90
2021/07/05 09:00:33;;;;;;;10.13;3.60;;;18.20;99.90;;;;;;5053622;28;20025;-90
2021/07/05 09:03:01;;;;;;;9.45;3.38;;;18.30;99.90;;;;;;5036104;28;20048;-87
2021/07/05 09:05:27;;;;;;;10.27;3.90;;;18.30;99.90;;;;;;5053851;28;20500;-88
2021/07/05 09:08:22;;;;;;;11.82;3.55;;;18.40;99.30;;;;;;5036075;28;20056;-87
2021/07/05 09:10:52;;;;;;;11.55;3.75;;;18.40;98.90;;;;;;5031859;28;20029;-87
2021/07/05 09:13:20;;;;;;;8.80;3.42;;;18.40;99.10;;;;;;5053926;28;20100;-87
2021/07/05 09:15:51;;;;;;;7.60;3.20;;;18.40;99.00;;;;;;5035769;28;20449;-88
2021/07/05 09:18:27;;;;;;;8.38;3.42;;;18.50;99.10;;;;;;5035786;28;20514;-87
2021/07/05 09:20:57;;;;;;;9.57;2.92;;;18.50;99.90;;;;;;5052767;28;20033;-85
2021/07/05 09:23:23;;;;;;;5.43;2.85;;;18.50;99.90;;;;;;5053959;28;20394;-86
2021/07/05 09:25:52;;;;;;;9.20;2.97;;;18.50;99.90;;;;;;5035616;28;20025;-85
2021/07/05 09:28:22;;;;;;;5.65;2.20;;;18.50;99.90;;;;;;5053699;28;20086;-85
2021/07/05 09:30:50;;;;;;;6.63;2.45;;;18.50;99.70;;;;;;5053021;28;20047;-86
2021/07/05 09:33:28;;;;;;;7.97;2.33;;;18.50;99.70;;;;;;5035315;28;20049;-85
2021/07/05 09:35:55;;;;;;;7.30;2.10;;;18.50;99.60;;;;;;5035663;28;20401;-85
2021/07/05 09:38:41;;;;;;;6.38;2.55;;;18.40;99.70;;;;;;5035484;28;20025;-85
2021/07/05 09:41:27;;;;;;;5.30;2.20;;;18.40;99.90;;;;;;5034991;28;20025;-85
2021/07/05 09:43:58;;;;;;;6.07;2.10;;;18.40;99.90;;;;;;5053137;28;20052;-85
2021/07/05 09:46:40;;;;;;;8.27;2.80;;;18.30;99.70;;;;;;5053375;28;20021;-85
2021/07/05 09:49:17;;;;;;;4.97;2.10;;;18.30;99.40;;;;;;5051898;28;20028;-85
2021/07/05 09:51:46;;;;;;;5.00;2.17;;;18.30;99.70;;;;;;5035272;28;20385;-85
2021/07/05 09:54:16;;;;;;;4.95;2.03;;;18.30;99.70;;;;;;5035124;28;20079;-85
2021/07/05 09:56:43;;;;;;;4.57;2.13;;;18.40;99.70;;;;;;5035433;28;20029;-86
2021/07/05 09:59:19;;;;;;;5.78;2.20;;;18.40;99.90;;;;;;5034482;28;20057;-85
2021/07/05 10:01:51;;;;;;;5.72;2.42;;;18.50;99.60;;;;;;5053053;28;20052;-85
2021/07/05 10:04:24;;;;;;;7.13;2.05;;;18.60;99.30;;;;;;5035125;28;20033;-85
2021/07/05 10:06:50;;;;;;;7.25;2.70;;;18.70;99.40;;;;;;5035234;28;20031;-85
2021/07/05 10:09:31;;;;;;;5.95;2.20;;;18.80;99.30;;;;;;5034119;28;20025;-85
2021/07/05 10:12:14;;;;;;;3.78;1.77;;;18.80;98.90;;;;;;5035149;28;20482;-85
2021/07/05 10:14:40;;;;;;;6.80;2.50;;;18.80;99.30;;;;;;5034893;28;20504;-85
2021/07/05 10:17:15;;;;;;;6.60;2.50;;;18.80;99.30;;;;;;5052533;28;20062;-85
2021/07/05 10:19:40;;;;;;;8.45;2.17;;;18.80;99.20;;;;;;5034054;28;20037;-85
2021/07/05 10:22:06;;;;;;;4.75;2.20;;;18.80;99.20;;;;;;5034684;28;20431;-85
2021/07/05 10:24:32;;;;;;;9.30;2.53;;;18.70;99.00;;;;;;5034566;28;20017;-85
2021/07/05 10:26:58;;;;;;;7.05;2.35;;;18.70;99.10;;;;;;5034915;28;20390;-85
2021/07/05 10:29:24;;;;;;;5.32;2.38;;;18.70;99.50;;;;;;5035601;28;20032;-85
2021/07/05 10:31:50;;;;;;;5.03;2.13;;;18.60;99.90;;;;;;5036748;28;20025;-85
2021/07/05 10:34:16;;;;;;;7.55;2.50;;;18.70;99.60;;;;;;5060089;28;20026;-86
2021/07/05 10:36:43;;;;;;;5.78;2.35;;;18.80;99.30;;;;;;5055793;28;20017;-85
2021/07/05 10:39:09;;;;;;;4.93;1.90;;;18.90;98.90;;;;;;5069757;28;20048;-85
2021/07/05 10:41:40;;;;;;;5.43;2.03;;;18.90;97.90;;;;;;5071989;28;20039;-85
2021/07/05 10:44:09;;;;;;;6.75;2.25;;;19.00;97.60;;;;;;5052507;28;20071;-86
2021/07/05 10:46:44;;;;;;;5.78;1.85;;;19.00;97.20;;;;;;5051675;28;20577;-85
2021/07/05 10:49:34;;;;;;;6.50;2.10;;;18.90;97.00;;;;;;5034033;28;20516;-85
2021/07/05 10:52:08;;;;;;;6.85;2.28;;;19.00;97.30;;;;;;5037894;28;20039;-85
2021/07/05 10:54:50;;;;;;;4.13;2.22;;;18.90;97.30;;;;;;5034505;28;20456;-85
2021/07/05 10:57:44;;;;;;;6.57;2.08;;;18.90;97.10;;;;;;5034778;28;20504;-85
2021/07/05 11:00:19;;;;;;;6.57;2.35;;;18.90;97.00;;;;;;5052259;28;20021;-85
2021/07/05 11:02:49;;;;;;;6.57;2.10;;;18.90;97.50;;;;;;5053739;28;20021;-85
2021/07/05 11:05:43;;;;;;;6.30;2.42;;;18.80;97.30;;;;;;5049278;28;20029;-85
2021/07/05 11:08:36;;;;;;;7.22;2.00;;;18.80;97.20;;;;;;5056658;28;20410;-85
2021/07/05 11:11:25;;;;;;;6.95;2.55;;;18.80;96.80;;;;;;5073330;28;20047;-85
2021/07/05 11:14:10;;;;;;;7.63;2.28;;;18.90;96.70;;;;;;5061060;28;20063;-85
2021/07/05 11:17:11;;;;;;;7.13;2.72;;;19.00;96.90;;;;;;5071312;28;20401;-85
2021/07/05 11:19:50;;;;;;;4.85;2.20;;;19.10;97.00;;;;;;5044220;28;20049;-85
2021/07/05 11:22:35;;;;;;;5.57;2.30;;;19.10;96.80;;;;;;5034133;28;20040;-85
2021/07/05 11:25:24;;;;;;;4.10;2.08;;;19.20;96.80;;;;;;5051793;28;20104;-85
2021/07/05 11:28:03;;;;;;;5.68;2.08;;;19.30;96.90;;;;;;5051852;28;20032;-85
2021/07/05 11:30:44;;;;;;;4.53;1.88;;;19.40;96.70;;;;;;5033478;28;20445;-85
2021/07/05 11:33:09;;;;;;;7.45;2.38;;;19.40;96.50;;;;;;5033547;28;20024;-85
2021/07/05 11:35:38;;;;;;;5.90;2.03;;;19.40;96.40;;;;;;5051559;28;20033;-85
2021/07/05 11:38:32;;;;;;;8.73;2.45;;;19.40;96.40;;;;;;5033920;28;20032;-85
2021/07/05 11:41:20;;;;;;;4.65;1.80;;;19.40;96.40;;;;;;5051360;28;20036;-85
2021/07/05 11:43:51;;;;;;;8.75;2.03;;;19.40;96.10;;;;;;5033927;28;20457;-85
2021/07/05 11:46:27;;;;;;;6.30;2.05;;;19.30;96.40;;;;;;5033527;28;20116;-85
2021/07/05 11:48:56;;;;;;;4.22;2.10;;;19.40;96.90;;;;;;5033062;28;20021;-85
2021/07/05 11:51:23;;;;;;;5.80;2.40;;;19.40;97.00;;;;;;5033595;28;20093;-85
2021/07/05 11:53:59;;;;;;;6.85;2.45;;;19.40;96.90;;;;;;5051667;28;20025;-85
2021/07/05 11:56:38;;;;;;;7.93;2.90;;;19.50;97.00;;;;;;5033473;28;20032;-85
2021/07/05 11:59:08;;;;;;;6.35;2.45;;;19.50;96.90;;;;;;5050779;28;20066;-85
2021/07/05 12:01:35;;;;;;;5.82;2.00;;;19.60;96.60;;;;;;5051461;28;20044;-85
2021/07/05 12:04:03;;;;;;;4.38;1.92;;;19.70;96.20;;;;;;5051475;28;20036;-85
2021/07/05 12:06:29;;;;;;;8.40;2.38;;;19.70;96.30;;;;;;5051360;28;20021;-85
2021/07/05 12:09:05;;;;;;;5.82;2.38;;;19.70;96.10;;;;;;5050887;28;20058;-86
2021/07/05 12:11:49;;;;;;;6.07;2.30;;;19.60;96.20;;;;;;5033530;28;20021;-85
2021/07/05 12:14:26;;;;;;;6.50;2.42;;;19.60;96.40;;;;;;5037140;28;20094;-85
2021/07/05 12:16:58;;;;;;;5.30;2.13;;;19.50;96.00;;;;;;5037203;28;20048;-85
2021/07/05 12:19:26;;;;;;;4.72;1.92;;;19.50;96.10;;;;;;5054201;28;20512;-85
2021/07/05 12:21:59;;;;;;;6.80;2.03;;;19.50;96.30;;;;;;5036915;28;20031;-85
2021/07/05 12:24:30;;;;;;;5.57;2.03;;;19.50;96.10;;;;;;5054927;28;20033;-85
2021/07/05 12:27:05;;;;;;;5.72;1.95;;;19.50;95.90;;;;;;5054863;28;20493;-85
2021/07/05 12:29:54;;;;;;;5.88;2.28;;;19.40;95.60;;;;;;5054180;28;20029;-85
2021/07/05 12:32:28;;;;;;;3.45;1.80;;;19.40;94.90;;;;;;5036605;28;20070;-85
2021/07/05 12:35:09;;;;;;;4.88;1.88;;;19.40;94.80;;;;;;5054644;28;20128;-85
2021/07/05 12:37:38;;;;;;;3.60;1.77;;;19.40;94.80;;;;;;5054391;28;20055;-85
2021/07/05 12:40:07;;;;;;;5.75;2.10;;;19.30;95.10;;;;;;5053811;28;20362;-85
2021/07/05 12:42:38;;;;;;;;;;;19.30;95.30;;;;;;5054730;28;20036;-86
2021/07/05 12:45:42;;;;;;;4.38;2.00;;;19.30;95.60;;;;;;5054175;28;19916;-86
2021/07/05 12:48:17;;;;;;;4.22;2.25;;;19.30;95.90;;;;;;5054316;28;20125;-86
2021/07/05 12:50:45;;;;;;;4.45;2.00;;;19.20;95.70;;;;;;5035724;28;20028;-86
2021/07/05 12:53:15;;;;;;;5.10;2.50;;;19.20;96.00;;;;;;5036191;28;20032;-86
2021/07/05 12:55:53;;;;;;;4.72;2.33;;;19.20;95.30;;;;;;5036327;28;20132;-86